Time;durP1;ratioP1;P1;durP2;ratioP2;P2;SDS_P1;SDS_P2;PMS_P1;PMS_P2;Temp;Humidity;BMP_temperature;BMP_pressure;BME280_temperature;BME280_humidity;BME280_pressure;Samples;Min_cycle;Max_cycle;Signal;HPM_P1;HPM_P2
2023/04/10 00:00:18;;;;;;;65.05;11.63;;;1.50;99.90;;;-0.32;91.74;102321.38;5005035;28;20398;-72
2023/04/10 00:02:44;;;;;;;49.65;10.90;;;1.40;99.90;;;-0.38;91.98;102310.88;5026222;28;20030;-73
2023/04/10 00:05:10;;;;;;;13.13;9.00;;;1.30;99.90;;;-0.41;92.12;102313.41;4998881;28;20042;-72
2023/04/10 00:07:38;;;;;;;11.77;7.50;;;1.30;99.90;;;-0.42;92.32;102317.69;5008854;28;20105;-73
2023/04/10 00:10:04;;;;;;;181.40;10.85;;;1.30;99.90;;;-0.40;92.24;102316.88;4991555;28;20038;-73
2023/04/10 00:12:30;;;;;;;310.02;19.88;;;1.30;99.90;;;-0.38;92.54;102313.47;4997499;28;20041;-73
2023/04/10 00:14:57;;;;;;;223.45;16.70;;;1.20;99.90;;;-0.48;93.38;102316.66;4978048;28;20045;-73
2023/04/10 00:17:23;;;;;;;308.98;17.33;;;1.20;99.90;;;-0.49;96.45;102309.75;4989331;28;20131;-73
2023/04/10 00:19:48;;;;;;;365.58;18.15;;;1.20;99.90;;;-0.47;98.93;102310.69;5000276;28;20124;-73
2023/04/10 00:22:15;;;;;;;361.63;20.13;;;1.30;99.90;;;-0.37;100.00;102312.63;4994494;28;20101;-72
2023/04/10 00:24:43;;;;;;;303.02;25.13;;;1.30;99.90;;;-0.28;100.00;102314.56;4999106;28;20051;-73
2023/04/10 00:27:09;;;;;;;477.08;27.38;;;1.40;99.90;;;-0.29;100.00;102313.69;4974750;28;20514;-74
2023/04/10 00:29:35;;;;;;;506.17;21.70;;;1.40;99.90;;;-0.24;100.00;102314.69;4996288;28;20044;-73
2023/04/10 00:32:00;;;;;;;375.58;20.98;;;1.40;99.90;;;-0.23;100.00;102307.78;5009237;28;20049;-73
2023/04/10 00:34:26;;;;;;;393.83;19.33;;;1.40;99.90;;;-0.25;100.00;102310.31;4999245;28;20169;-73
2023/04/10 00:36:52;;;;;;;489.65;21.67;;;1.40;99.90;;;-0.23;100.00;102308.66;5001882;28;20410;-73
2023/04/10 00:39:18;;;;;;;537.63;23.13;;;1.40;99.90;;;-0.20;100.00;102297.50;4977778;28;20045;-73
2023/04/10 00:41:44;;;;;;;535.78;33.25;;;1.50;99.90;;;-0.17;100.00;102299.25;5000439;28;20087;-73
2023/04/10 00:44:10;;;;;;;345.20;22.95;;;1.50;99.90;;;-0.18;100.00;102297.53;5007927;28;20391;-73
2023/04/10 00:46:38;;;;;;;396.95;27.95;;;1.40;99.90;;;-0.22;100.00;102294.88;4991847;28;20036;-73
2023/04/10 00:49:05;;;;;;;301.73;19.92;;;1.40;99.90;;;-0.27;100.00;102290.44;4992737;28;20030;-73
2023/04/10 00:51:31;;;;;;;149.40;15.00;;;1.40;99.90;;;-0.26;100.00;102287.88;4989835;28;20045;-73
2023/04/10 00:53:59;;;;;;;155.75;14.10;;;1.40;99.90;;;-0.26;100.00;102289.56;4997335;28;20107;-73
2023/04/10 00:56:24;;;;;;;85.30;11.65;;;1.40;99.90;;;-0.23;100.00;102289.66;4984603;28;20751;-72
2023/04/10 00:58:53;;;;;;;150.75;14.20;;;1.40;99.90;;;-0.21;100.00;102281.09;5002047;28;20029;-73
2023/04/10 01:01:18;;;;;;;36.55;9.90;;;1.40;99.90;;;-0.19;100.00;102277.63;5008690;28;20072;-73
2023/04/10 01:03:44;;;;;;;105.78;13.57;;;1.40;99.90;;;-0.19;100.00;102277.63;4990222;28;20092;-73
2023/04/10 01:06:46;;;;;;;83.43;13.73;;;1.40;99.90;;;-0.23;100.00;102282.75;4995998;28;20056;-73
2023/04/10 01:09:32;;;;;;;47.38;14.43;;;1.40;99.90;;;-0.27;100.00;102278.34;4991955;28;20046;-73
2023/04/10 01:12:08;;;;;;;46.20;15.38;;;1.30;99.90;;;-0.32;100.00;102284.28;4981518;28;20586;-73
2023/04/10 01:15:05;;;;;;;32.65;14.63;;;1.30;99.90;;;-0.37;100.00;102280.69;4985954;28;20078;-73
2023/04/10 01:17:41;;;;;;;27.95;13.85;;;1.30;99.90;;;-0.40;100.00;102272.88;4975081;28;20060;-73
2023/04/10 01:20:15;;;;;;;29.27;14.70;;;1.20;99.90;;;-0.42;100.00;102270.25;4999003;28;20092;-72
2023/04/10 01:22:52;;;;;;;19.63;10.77;;;1.20;99.90;;;-0.40;100.00;102278.91;4994806;28;20391;-73
2023/04/10 01:25:47;;;;;;;16.95;9.15;;;1.30;99.90;;;-0.37;100.00;102278.09;4989858;28;20105;-72
2023/04/10 01:28:43;;;;;;;89.18;19.88;;;1.20;99.90;;;-0.42;100.00;102276.28;4990202;28;20041;-73
2023/04/10 01:31:37;;;;;;;75.40;18.43;;;1.20;99.90;;;-0.47;100.00;102272.72;4981706;28;20042;-73
2023/04/10 01:34:10;;;;;;;41.05;16.27;;;1.20;99.90;;;-0.41;100.00;102261.66;5007796;28;20356;-72
2023/04/10 01:36:58;;;;;;;92.47;17.92;;;1.20;99.90;;;-0.37;100.00;102258.25;4997055;28;20621;-73
2023/04/10 01:39:27;;;;;;;36.35;11.45;;;1.20;99.90;;;-0.37;100.00;102265.16;5012029;28;20029;-73
2023/04/10 01:41:58;;;;;;;550.10;27.95;;;1.30;99.90;;;-0.38;100.00;102266.88;4995147;28;20124;-73
2023/04/10 01:44:30;;;;;;;112.15;16.90;;;1.20;99.90;;;-0.39;100.00;102262.53;4980413;28;20044;-73
2023/04/10 01:46:57;;;;;;;39.80;14.75;;;1.20;99.90;;;-0.40;100.00;102262.53;5001000;28;20044;-73
2023/04/10 01:49:29;;;;;;;23.85;11.43;;;1.20;99.90;;;-0.38;100.00;102263.44;5006866;28;20033;-72
2023/04/10 01:51:58;;;;;;;96.25;13.98;;;1.20;99.90;;;-0.40;100.00;102260.78;4970498;28;20029;-73
2023/04/10 01:54:29;;;;;;;30.83;12.23;;;1.20;99.90;;;-0.40;100.00;102260.78;5005488;28;20041;-73
2023/04/10 01:56:56;;;;;;;53.67;12.68;;;1.20;99.90;;;-0.43;100.00;102258.16;4996520;28;20525;-73
2023/04/10 01:59:22;;;;;;;56.28;13.10;;;1.20;99.90;;;-0.40;100.00;102253.03;4969007;28;20137;-73
2023/04/10 02:02:00;;;;;;;29.20;11.02;;;1.80;99.90;;;-0.41;100.00;102256.47;4988857;28;20049;-73
2023/04/10 02:04:26;;;;;;;;;;;1.20;99.90;;;-0.44;100.00;102269.31;4981539;28;20042;-73
2023/04/10 02:07:06;;;;;;;17.67;7.78;;;1.20;99.90;;;-0.49;100.00;102265.78;4997938;28;19913;-73
2023/04/10 02:09:57;;;;;;;22.75;9.25;;;1.10;99.90;;;-0.57;100.00;102262.97;4979726;28;20046;-73
2023/04/10 02:12:30;;;;;;;35.15;10.50;;;1.10;99.90;;;-0.66;100.00;102260.19;4990616;28;20029;-73
2023/04/10 02:15:00;;;;;;;23.17;9.57;;;1.10;99.90;;;-0.63;100.00;102255.06;4987507;28;20041;-73
2023/04/10 02:17:29;;;;;;;47.13;9.70;;;1.10;99.90;;;-0.60;100.00;102256.84;4988589;28;20088;-73
2023/04/10 02:19:57;;;;;;;79.85;12.63;;;1.10;99.90;;;-0.56;100.00;102258.69;4998868;28;20030;-73
2023/04/10 02:22:24;;;;;;;72.88;11.60;;;1.10;99.90;;;-0.50;100.00;102259.69;5006021;28;20117;-73
2023/04/10 02:24:51;;;;;;;88.90;12.15;;;1.10;99.90;;;-0.52;100.00;102264.00;4983634;28;20050;-73
2023/04/10 02:27:28;;;;;;;129.52;13.70;;;1.10;99.90;;;-0.49;100.00;102251.09;4995081;28;20038;-74
2023/04/10 02:29:54;;;;;;;74.30;9.88;;;1.20;99.90;;;-0.49;100.00;102255.41;4977066;28;20049;-73
2023/04/10 02:32:19;;;;;;;13.95;6.88;;;1.20;99.90;;;-0.45;100.00;102254.66;4997550;28;20072;-73
2023/04/10 02:34:45;;;;;;;22.00;8.30;;;1.20;99.90;;;-0.45;100.00;102255.53;5007911;28;20040;-73
2023/04/10 02:37:11;;;;;;;186.70;12.35;;;1.20;99.90;;;-0.42;100.00;102253.00;4989988;28;20086;-73
2023/04/10 02:39:40;;;;;;;276.70;15.77;;;1.20;99.90;;;-0.49;100.00;102243.34;4996609;28;20041;-73
2023/04/10 02:42:05;;;;;;;22.10;8.20;;;1.20;99.90;;;-0.45;100.00;102249.47;4996102;28;20120;-73
2023/04/10 02:44:31;;;;;;;90.85;12.68;;;1.20;99.90;;;-0.47;100.00;102246.84;5004599;28;20136;-73
2023/04/10 02:46:57;;;;;;;33.88;7.68;;;1.20;99.90;;;-0.49;100.00;102248.53;5001246;28;20045;-74
2023/04/10 02:49:23;;;;;;;18.23;7.80;;;1.10;99.90;;;-0.52;100.00;102256.22;5007769;28;20057;-73
2023/04/10 02:51:49;;;;;;;11.35;6.25;;;1.10;99.90;;;-0.54;100.00;102262.19;4986883;28;20029;-73
2023/04/10 02:54:14;;;;;;;17.38;8.40;;;1.10;99.90;;;-0.58;100.00;102258.66;5008820;28;20187;-73
2023/04/10 02:56:40;;;;;;;76.68;11.40;;;1.00;99.90;;;-0.65;100.00;102261.91;4997222;28;20036;-74
2023/04/10 02:59:06;;;;;;;449.83;18.98;;;1.00;99.90;;;-0.72;100.00;102260.03;4974489;28;20044;-73
2023/04/10 03:01:32;;;;;;;15.02;7.80;;;0.90;99.90;;;-0.79;100.00;102264.19;4987078;28;20125;-73
2023/04/10 03:03:59;;;;;;;14.77;7.95;;;0.90;99.90;;;-0.83;100.00;102259.75;4980343;28;20052;-73
2023/04/10 03:06:27;;;;;;;793.22;22.50;;;0.80;99.90;;;-0.88;100.00;102251.91;4999463;28;20037;-73
2023/04/10 03:08:53;;;;;;;89.50;7.75;;;0.80;99.90;;;-0.90;100.00;102247.53;5000961;28;20138;-73
2023/04/10 03:11:19;;;;;;;230.93;16.60;;;0.80;99.90;;;-0.91;100.00;102254.38;4992044;28;20490;-74
2023/04/10 03:13:46;;;;;;;34.97;11.15;;;0.80;99.90;;;-0.91;100.00;102245.75;4997131;28;20176;-74
2023/04/10 03:16:14;;;;;;;41.47;10.88;;;0.80;99.90;;;-0.91;100.00;102248.34;5003851;28;20041;-73
2023/04/10 03:18:40;;;;;;;182.10;16.23;;;0.80;99.90;;;-0.89;100.00;102251.84;4984919;28;20406;-74
2023/04/10 03:21:06;;;;;;;344.45;20.73;;;0.80;99.90;;;-0.86;100.00;102246.78;5012987;28;20057;-73
2023/04/10 03:23:32;;;;;;;433.60;22.65;;;0.80;99.90;;;-0.80;100.00;102241.72;4993087;28;20030;-73
2023/04/10 03:25:58;;;;;;;733.88;33.78;;;0.90;99.90;;;-0.75;100.00;102247.91;5000331;28;20037;-74
2023/04/10 03:28:24;;;;;;;438.52;22.05;;;0.90;99.90;;;-0.74;100.00;102239.28;4998639;28;20049;-73
2023/04/10 03:30:57;;;;;;;696.33;19.80;;;0.80;99.90;;;-0.84;100.00;102239.94;4995800;28;20044;-74
2023/04/10 03:33:23;;;;;;;430.58;16.20;;;0.80;99.90;;;-0.95;100.00;102241.34;5008541;28;20051;-74
2023/04/10 03:35:49;;;;;;;64.15;13.32;;;0.70;99.90;;;-1.04;100.00;102237.72;5010535;28;20487;-73
2023/04/10 03:38:15;;;;;;;33.15;11.57;;;0.70;99.90;;;-1.10;100.00;102229.81;4988282;28;20048;-74
2023/04/10 03:40:40;;;;;;;278.83;15.40;;;0.60;99.90;;;-1.15;100.00;102225.34;5017556;28;20124;-74
2023/04/10 03:43:08;;;;;;;45.17;11.95;;;0.60;99.90;;;-1.21;100.00;102231.22;5000731;28;20033;-73
2023/04/10 03:45:34;;;;;;;106.13;10.27;;;0.50;99.90;;;-1.27;100.00;102226.78;5027566;28;20542;-74
2023/04/10 03:48:00;;;;;;;25.98;8.63;;;0.40;99.90;;;-1.28;100.00;102229.31;4976075;28;20050;-74
2023/04/10 03:50:26;;;;;;;13.15;7.60;;;0.40;99.90;;;-1.29;100.00;102230.16;4977563;28;20084;-74
2023/04/10 03:52:52;;;;;;;14.95;7.03;;;0.40;99.90;;;-1.29;100.00;102225.84;5000402;28;20112;-74
2023/04/10 03:55:17;;;;;;;12.77;7.35;;;0.40;99.90;;;-1.28;100.00;102232.75;5014245;28;20037;-74
2023/04/10 03:57:47;;;;;;;12.30;6.80;;;0.40;99.90;;;-1.29;100.00;102225.84;4981408;28;20033;-74
2023/04/10 04:00:16;;;;;;;370.25;16.77;;;0.40;99.90;;;-1.28;100.00;102231.91;4990707;28;20033;-74
2023/04/10 04:02:42;;;;;;;88.78;12.60;;;0.40;99.90;;;-1.31;100.00;102222.38;4989261;28;20038;-74
2023/04/10 04:05:09;;;;;;;203.00;14.48;;;0.40;99.90;;;-1.30;100.00;102226.69;4999576;28;20044;-74
2023/04/10 04:07:36;;;;;;;253.68;16.55;;;0.40;99.90;;;-1.29;100.00;102217.25;4998169;28;20037;-74
2023/04/10 04:10:03;;;;;;;449.60;22.10;;;0.40;99.90;;;-1.28;100.00;102209.50;5002114;28;20037;-73
2023/04/10 04:12:29;;;;;;;540.65;27.65;;;0.40;99.90;;;-1.28;100.00;102206.91;4976127;28;20449;-73
2023/04/10 04:14:55;;;;;;;628.53;31.55;;;0.50;99.90;;;-1.26;100.00;102206.97;5008682;28;20080;-74
2023/04/10 04:17:21;;;;;;;551.45;22.02;;;0.50;99.90;;;-1.20;100.00;102204.53;4991268;28;20464;-73
2023/04/10 04:19:47;;;;;;;838.42;33.70;;;0.50;99.90;;;-1.12;100.00;102207.34;5000126;28;20031;-74
2023/04/10 04:22:13;;;;;;;760.38;32.67;;;0.60;99.90;;;-1.06;100.00;102213.53;5005709;28;20046;-73
2023/04/10 04:24:39;;;;;;;670.10;25.90;;;0.60;99.90;;;-1.06;100.00;102210.94;4997041;28;20042;-74
2023/04/10 04:27:05;;;;;;;467.95;21.92;;;0.60;99.90;;;-1.04;100.00;102206.69;4982334;28;20045;-75
2023/04/10 04:29:30;;;;;;;477.42;20.92;;;0.60;99.90;;;-1.07;100.00;102209.19;4990430;28;20179;-74
2023/04/10 04:31:59;;;;;;;388.60;20.33;;;0.60;99.90;;;-1.08;100.00;102201.38;4989585;28;20030;-73
2023/04/10 04:34:24;;;;;;;377.30;17.05;;;0.60;99.90;;;-1.04;100.00;102201.53;4980679;28;20033;-74
2023/04/10 04:36:50;;;;;;;262.77;14.40;;;0.60;99.90;;;-0.99;100.00;102214.56;5003096;28;20037;-74
2023/04/10 04:39:16;;;;;;;18.52;7.13;;;0.70;99.90;;;-0.88;100.00;102214.81;4994216;28;20406;-73
2023/04/10 04:41:42;;;;;;;18.60;9.82;;;0.70;99.90;;;-0.76;100.00;102219.41;4991969;28;20487;-74
2023/04/10 04:44:14;;;;;;;30.23;11.45;;;0.80;99.90;;;-0.66;100.00;102211.91;4987244;28;20038;-74
2023/04/10 04:46:40;;;;;;;67.35;8.77;;;0.90;99.90;;;-0.65;100.00;102210.19;5000878;28;20034;-73
2023/04/10 04:49:06;;;;;;;95.47;8.98;;;0.90;99.90;;;-0.56;100.00;102215.59;4994076;28;20052;-74
2023/04/10 04:51:31;;;;;;;105.38;9.27;;;1.00;99.90;;;-0.43;100.00;102222.78;5001351;28;20057;-74
2023/04/10 04:53:57;;;;;;;168.88;13.18;;;1.10;99.90;;;-0.36;100.00;102220.34;5001952;28;20029;-74
2023/04/10 04:56:23;;;;;;;107.10;11.50;;;1.10;99.90;;;-0.26;100.00;102220.56;4979758;28;20128;-74
2023/04/10 04:58:56;;;;;;;139.30;12.73;;;1.20;99.90;;;-0.15;100.00;102220.81;5004600;28;20414;-74
2023/04/10 05:01:23;;;;;;;232.48;15.18;;;1.30;99.90;;;-0.02;100.00;102224.53;4999775;28;20048;-75
2023/04/10 05:03:49;;;;;;;107.97;11.23;;;1.50;99.90;;;0.11;100.00;102226.53;4998167;28;20456;-74
2023/04/10 05:06:17;;;;;;;191.60;14.18;;;1.60;99.90;;;0.27;100.00;102225.13;4995023;28;20033;-74
2023/04/10 05:08:43;;;;;;;184.02;13.68;;;1.70;99.90;;;0.46;100.00;102228.94;5015353;28;20513;-74
2023/04/10 05:11:09;;;;;;;115.30;12.63;;;1.80;99.90;;;0.69;100.00;102238.84;4981883;28;20065;-74
2023/04/10 05:13:35;;;;;;;138.60;13.27;;;2.00;99.90;;;0.79;100.00;102226.09;5007609;28;20410;-74
2023/04/10 05:16:01;;;;;;;192.75;13.70;;;2.10;99.90;;;0.84;100.00;102236.53;4971178;28;20040;-74
2023/04/10 05:18:27;;;;;;;114.13;12.70;;;2.20;99.90;;;0.98;99.98;102240.25;4972748;28;20619;-74
2023/04/10 05:20:53;;;;;;;103.78;11.57;;;2.30;99.90;;;1.16;99.44;102238.81;4986091;28;20572;-74
2023/04/10 05:23:19;;;;;;;117.93;11.40;;;2.50;99.90;;;1.38;98.49;102238.34;4989898;28;20116;-74
2023/04/10 05:25:50;;;;;;;98.63;11.20;;;2.60;99.90;;;1.52;98.01;102232.47;4986526;28;20510;-74
2023/04/10 05:28:16;;;;;;;40.53;8.55;;;2.80;99.90;;;1.70;96.87;102245.69;4968685;28;20207;-74
2023/04/10 05:30:42;;;;;;;54.90;9.40;;;2.90;99.90;;;1.86;96.25;102252.00;4993577;28;20167;-74
2023/04/10 05:33:07;;;;;;;171.63;12.93;;;3.10;99.90;;;2.02;95.49;102255.66;4982303;28;20509;-74
2023/04/10 05:35:34;;;;;;;49.55;7.45;;;3.20;99.90;;;2.15;95.24;102262.78;4992321;28;20030;-74
2023/04/10 05:38:04;;;;;;;111.25;12.18;;;3.40;99.90;;;2.32;94.70;102256.91;5009674;28;20030;-75
2023/04/10 05:40:30;;;;;;;37.38;7.95;;;3.50;99.90;;;2.48;94.10;102269.22;4930517;28;20439;-74
2023/04/10 05:42:56;;;;;;;123.05;10.32;;;3.70;99.90;;;2.76;93.30;102261.72;4975044;28;20036;-74
2023/04/10 05:45:22;;;;;;;69.20;10.43;;;3.90;99.90;;;3.06;92.31;102255.94;5016600;28;20137;-74
2023/04/10 05:47:48;;;;;;;170.52;11.18;;;4.10;99.90;;;3.36;91.31;102252.72;5003828;28;20045;-74
2023/04/10 05:50:14;;;;;;;225.88;11.48;;;4.40;99.90;;;3.66;90.66;102254.69;4962618;28;20025;-73
2023/04/10 05:52:42;;;;;;;167.35;10.82;;;4.60;99.90;;;3.94;89.39;102254.84;4997688;28;20026;-74
2023/04/10 05:55:08;;;;;;;226.93;11.88;;;4.90;99.90;;;4.25;88.32;102253.25;4963278;28;20454;-74
2023/04/10 05:57:34;;;;;;;213.77;11.82;;;5.00;99.90;;;4.23;87.50;102256.72;5021975;28;20041;-73
2023/04/10 06:00:00;;;;;;;205.38;8.77;;;5.10;99.90;;;4.08;87.01;102249.69;5000527;28;20033;-73
2023/04/10 06:02:26;;;;;;;183.25;9.98;;;5.20;99.90;;;4.35;86.34;102254.16;4999268;28;20656;-73
2023/04/10 06:04:52;;;;;;;150.73;11.80;;;5.30;99.90;;;4.84;85.58;102256.91;4989998;28;20042;-73
2023/04/10 06:07:18;;;;;;;41.08;7.47;;;5.50;99.90;;;5.30;83.27;102256.06;5007490;28;20812;-73
2023/04/10 06:09:44;;;;;;;134.50;6.93;;;5.70;99.90;;;5.61;81.65;102253.41;5010414;28;20041;-73
2023/04/10 06:12:10;;;;;;;57.75;6.53;;;5.80;99.90;;;5.04;81.13;102249.09;4988958;28;20120;-73
2023/04/10 06:14:36;;;;;;;72.15;5.88;;;5.80;99.90;;;4.99;81.26;102244.72;4989860;28;20418;-73
2023/04/10 06:17:02;;;;;;;40.85;6.05;;;5.70;99.90;;;5.14;81.22;102239.53;4982892;28;20021;-73
2023/04/10 06:19:27;;;;;;;77.07;6.18;;;6.00;99.90;;;6.05;80.28;102253.34;5026378;28;20478;-73
2023/04/10 06:21:53;;;;;;;30.67;5.25;;;6.40;99.90;;;6.53;78.60;102258.38;5006507;28;20045;-73
2023/04/10 06:24:19;;;;;;;78.30;5.53;;;6.80;99.90;;;7.11;76.98;102265.00;4986520;28;20045;-73
2023/04/10 06:26:45;;;;;;;91.80;5.28;;;7.20;99.90;;;6.86;76.43;102261.66;5007318;28;20533;-74
2023/04/10 06:29:11;;;;;;;74.63;5.20;;;7.30;99.90;;;6.67;76.00;102264.38;4984922;28;20125;-73
2023/04/10 06:31:39;;;;;;;40.85;5.03;;;7.30;99.90;;;6.58;76.99;102264.44;4971330;28;20025;-73
2023/04/10 06:34:05;;;;;;;99.35;6.88;;;7.30;99.90;;;6.45;77.14;102260.16;4998969;28;20040;-74
2023/04/10 06:36:31;;;;;;;273.55;10.73;;;7.10;99.90;;;5.86;78.16;102259.47;5000853;28;20049;-74
2023/04/10 06:38:57;;;;;;;308.15;13.95;;;6.90;99.90;;;5.65;78.99;102258.63;4990555;28;20055;-74
2023/04/10 06:41:23;;;;;;;153.13;9.70;;;6.80;99.90;;;5.54;79.62;102250.81;5004456;28;20219;-73
2023/04/10 06:43:49;;;;;;;110.85;7.45;;;6.80;99.90;;;5.87;80.48;102256.84;4980717;28;20037;-74
2023/04/10 06:46:16;;;;;;;330.17;11.07;;;6.90;99.90;;;6.02;80.94;102262.94;4999481;28;20044;-74
2023/04/10 06:48:41;;;;;;;446.60;12.13;;;6.80;99.90;;;5.57;81.60;102249.94;5005494;28;20038;-74
2023/04/10 06:51:10;;;;;;;420.73;15.10;;;6.70;99.90;;;5.32;82.39;102255.19;4978341;28;20092;-74
2023/04/10 06:53:36;;;;;;;438.65;15.23;;;6.70;99.90;;;5.68;83.10;102268.22;4989609;28;20505;-74
2023/04/10 06:56:02;;;;;;;165.90;11.15;;;6.80;99.90;;;6.14;82.50;102262.91;4998783;28;20045;-74
2023/04/10 06:58:29;;;;;;;252.75;12.55;;;7.00;99.90;;;6.30;82.04;102261.09;4974529;28;20033;-75
2023/04/10 07:00:56;;;;;;;105.43;10.25;;;7.30;99.90;;;6.60;82.16;102261.84;4999837;28;20029;-73
2023/04/10 07:03:22;;;;;;;279.98;14.95;;;7.50;99.90;;;6.60;81.90;102262.69;4993051;28;20061;-76
2023/04/10 07:05:48;;;;;;;229.65;14.45;;;7.50;99.90;;;6.44;82.16;102261.06;5007274;28;20029;-74
2023/04/10 07:08:15;;;;;;;166.93;15.00;;;7.50;99.90;;;6.55;82.75;102257.50;4999702;28;20205;-75
2023/04/10 07:10:41;;;;;;;176.73;12.85;;;7.50;99.90;;;6.73;83.08;102253.88;5011171;28;20037;-75
2023/04/10 07:13:06;;;;;;;199.48;12.50;;;7.70;99.90;;;6.91;82.86;102254.63;4984901;28;20564;-74
2023/04/10 07:15:32;;;;;;;203.05;12.10;;;7.80;99.90;;;7.05;82.73;102249.31;5002243;28;20072;-74
2023/04/10 07:17:58;;;;;;;204.43;11.93;;;8.00;99.90;;;7.40;82.19;102259.50;4997974;28;20130;-74
2023/04/10 07:20:24;;;;;;;233.98;10.63;;;8.20;99.90;;;7.80;80.61;102259.13;4995754;28;20120;-74
2023/04/10 07:22:50;;;;;;;84.28;9.65;;;8.50;99.90;;;8.02;80.66;102260.63;5011124;28;20472;-74
2023/04/10 07:25:17;;;;;;;65.63;9.65;;;8.80;99.90;;;8.71;79.24;102266.78;5013766;28;20184;-74
2023/04/10 07:27:43;;;;;;;67.80;7.93;;;9.20;99.90;;;8.89;77.96;102263.00;5004007;28;20037;-74
2023/04/10 07:30:09;;;;;;;18.45;6.95;;;9.80;99.90;;;10.10;75.59;102265.28;4992037;28;20056;-74
2023/04/10 07:32:38;;;;;;;22.80;6.80;;;10.30;99.90;;;10.12;74.73;102270.50;5011562;28;20401;-74
2023/04/10 07:35:06;;;;;;;21.50;9.23;;;10.60;99.90;;;10.30;73.34;102267.53;5012758;28;20049;-74
2023/04/10 07:37:31;;;;;;;11.60;6.60;;;10.70;99.90;;;10.07;71.95;102257.44;4999667;28;20038;-74
2023/04/10 07:39:57;;;;;;;24.45;11.68;;;11.10;99.90;;;10.67;72.30;102258.84;4998427;28;20547;-74
2023/04/10 07:42:23;;;;;;;13.23;7.22;;;11.50;99.90;;;11.28;70.81;102260.00;5004490;28;20026;-73
2023/04/10 07:44:50;;;;;;;13.80;7.57;;;11.60;99.90;;;10.87;70.19;102253.13;5010069;28;20120;-75
2023/04/10 07:47:15;;;;;;;18.13;9.50;;;11.70;99.90;;;11.26;69.57;102263.59;5014557;28;20037;-74
2023/04/10 07:49:41;;;;;;;13.32;7.85;;;11.90;99.90;;;11.62;68.97;102266.19;5011944;28;20036;-75
2023/04/10 07:52:07;;;;;;;13.63;7.15;;;12.30;99.90;;;12.24;68.54;102268.03;5008903;28;20038;-74
2023/04/10 07:54:33;;;;;;;11.95;6.22;;;12.70;99.90;;;12.39;66.93;102272.84;4986039;28;20037;-75
2023/04/10 07:56:59;;;;;;;11.30;6.47;;;13.30;99.90;;;13.36;65.46;102268.97;5010075;28;20045;-75
2023/04/10 07:59:27;;;;;;;12.32;6.03;;;13.70;99.90;;;13.45;64.61;102264.22;5005418;28;20091;-74
2023/04/10 08:01:54;;;;;;;14.68;7.20;;;14.60;99.90;;;14.84;62.45;102285.66;5003717;28;20030;-74
2023/04/10 08:04:20;;;;;;;12.85;5.47;;;15.30;99.90;;;14.71;60.68;102269.41;4998697;28;20050;-74
2023/04/10 08:06:46;;;;;;;11.07;5.60;;;16.30;99.90;;;15.94;58.67;102272.25;5006244;28;20030;-74
2023/04/10 08:09:12;;;;;;;13.77;5.78;;;17.10;99.90;;;16.63;57.02;102273.50;5012493;28;20045;-74
2023/04/10 08:11:38;;;;;;;11.30;5.57;;;17.90;99.90;;;17.42;55.68;102280.25;5010298;28;20054;-75
2023/04/10 08:14:05;;;;;;;10.35;5.35;;;18.50;99.90;;;17.83;55.09;102281.75;5010447;28;20029;-74
2023/04/10 08:16:34;;;;;;;9.20;4.97;;;18.80;99.90;;;17.70;53.98;102268.19;5007483;28;20120;-75
2023/04/10 08:19:01;;;;;;;11.65;5.38;;;19.00;99.90;;;17.78;53.71;102268.66;4991271;28;20034;-75
2023/04/10 08:21:30;;;;;;;12.50;5.35;;;18.90;99.90;;;17.55;54.12;102258.31;4983798;28;20084;-74
2023/04/10 08:23:59;;;;;;;13.73;5.90;;;18.60;99.90;;;17.19;55.01;102260.13;5018024;28;20574;-74
2023/04/10 08:26:26;;;;;;;13.75;5.13;;;18.80;99.90;;;17.80;53.64;102256.09;5007488;28;20113;-74
2023/04/10 08:28:55;;;;;;;8.15;4.65;;;19.20;99.90;;;18.33;52.38;102263.97;5005889;28;20121;-74
2023/04/10 08:31:23;;;;;;;9.57;4.75;;;19.60;99.90;;;18.51;51.50;102265.66;5005108;28;20694;-74
2023/04/10 08:33:50;;;;;;;9.13;5.10;;;19.80;99.90;;;18.57;51.27;102270.59;5007067;28;20406;-74
2023/04/10 08:36:16;;;;;;;7.68;4.05;;;19.40;98.40;;;17.57;51.40;102254.63;4999635;28;20535;-74
2023/04/10 08:38:43;;;;;;;9.82;4.45;;;19.40;99.70;;;18.03;51.80;102256.69;5008710;28;20037;-74
2023/04/10 08:41:12;;;;;;;8.65;4.40;;;19.20;98.50;;;17.47;51.87;102247.19;5008563;28;20036;-74
2023/04/10 08:43:38;;;;;;;12.82;4.80;;;18.70;99.40;;;17.15;52.39;102255.03;5008412;28;20049;-74
2023/04/10 08:46:05;;;;;;;8.70;4.70;;;18.40;99.30;;;16.87;52.74;102248.41;5007712;28;20034;-74
2023/04/10 08:48:59;;;;;;;9.63;4.68;;;18.20;99.50;;;16.73;53.50;102240.19;5009830;28;20108;-74
2023/04/10 08:51:52;;;;;;;9.25;4.60;;;17.80;99.90;;;16.17;54.12;102229.50;4973336;28;20034;-75
2023/04/10 08:54:28;;;;;;;8.73;4.97;;;17.80;99.90;;;16.73;54.11;102240.19;5000585;28;20117;-74
2023/04/10 08:56:57;;;;;;;10.17;4.73;;;17.60;99.90;;;16.66;54.06;102238.78;5007175;28;20042;-74
2023/04/10 08:59:26;;;;;;;7.28;4.28;;;17.60;99.90;;;16.66;54.48;102242.31;4992074;28;20180;-75
2023/04/10 09:01:53;;;;;;;10.25;5.20;;;17.50;99.90;;;16.49;54.63;102235.13;5000219;28;20044;-74
2023/04/10 09:04:19;;;;;;;10.43;5.28;;;17.30;99.90;;;16.12;54.74;102226.22;4993029;28;20041;-75
2023/04/10 09:06:46;;;;;;;9.55;4.20;;;17.10;99.90;;;16.01;55.73;102223.19;5004180;28;20146;-74
2023/04/10 09:09:15;;;;;;;6.53;4.45;;;16.70;99.90;;;15.30;55.46;102205.03;5002327;28;20041;-74
2023/04/10 09:11:59;;;;;;;10.52;4.60;;;16.50;99.90;;;15.17;56.39;102203.84;5009686;28;20109;-74
2023/04/10 09:14:42;;;;;;;9.88;4.28;;;16.30;99.90;;;14.78;58.00;102196.63;5007721;28;20045;-75
2023/04/10 09:17:19;;;;;;;12.10;5.30;;;16.00;99.90;;;14.67;58.05;102197.06;5011626;28;20673;-74
2023/04/10 09:19:51;;;;;;;8.52;4.78;;;15.90;99.90;;;14.56;58.38;102197.50;5003330;28;20060;-75
2023/04/10 09:22:29;;;;;;;8.32;4.70;;;15.80;99.90;;;14.78;59.01;102193.97;5013498;28;20393;-74
2023/04/10 09:24:58;;;;;;;7.53;4.90;;;15.80;99.90;;;14.71;58.68;102197.81;5005240;28;20034;-74
2023/04/10 09:27:38;;;;;;;8.82;5.30;;;15.60;99.90;;;14.50;59.51;102181.78;4990957;28;20066;-74
2023/04/10 09:30:05;;;;;;;8.30;4.88;;;15.60;99.90;;;14.43;59.62;102185.63;4990416;28;20710;-74
2023/04/10 09:32:40;;;;;;;12.85;5.60;;;15.60;99.90;;;14.21;60.21;102182.06;5012184;28;20119;-74
2023/04/10 09:35:11;;;;;;;13.00;5.97;;;15.10;99.90;;;13.65;61.51;102172.69;4999465;28;20037;-74
2023/04/10 09:37:39;;;;;;;11.80;5.60;;;15.00;99.90;;;13.73;60.84;102166.19;5011374;28;20561;-74
2023/04/10 09:40:19;;;;;;;11.60;5.72;;;14.80;99.90;;;13.40;61.45;102163.00;5013939;28;20160;-74
2023/04/10 09:42:48;;;;;;;11.93;5.85;;;14.70;99.90;;;13.60;61.90;102154.31;5009442;28;20116;-74
2023/04/10 09:45:18;;;;;;;12.23;6.07;;;14.80;99.90;;;13.92;61.29;102166.38;5012516;28;20521;-74
2023/04/10 09:48:07;;;;;;;8.45;5.10;;;14.70;99.90;;;12.90;61.94;102139.13;5006153;28;20041;-74
2023/04/10 09:50:39;;;;;;;11.15;5.93;;;14.50;99.90;;;13.11;62.99;102150.78;5006714;28;20115;-74
2023/04/10 09:53:18;;;;;;;14.02;6.22;;;14.30;99.90;;;12.97;63.84;102143.28;5009311;28;20034;-74
2023/04/10 09:55:46;;;;;;;14.20;5.90;;;14.30;99.90;;;13.24;63.76;102149.41;4997649;28;20402;-74
2023/04/10 09:58:14;;;;;;;11.95;6.32;;;14.20;99.90;;;13.01;64.93;102137.00;5012046;28;20045;-74
2023/04/10 10:00:46;;;;;;;13.50;6.55;;;14.30;99.90;;;13.30;63.63;102138.66;5005853;28;20443;-74
2023/04/10 10:03:15;;;;;;;14.13;7.15;;;14.50;99.90;;;13.46;63.63;102141.59;4999037;28;20038;-74
2023/04/10 10:05:50;;;;;;;15.63;7.03;;;14.50;99.90;;;13.32;64.25;102136.78;5010018;28;20045;-74
2023/04/10 10:08:23;;;;;;;16.45;6.82;;;14.60;99.90;;;13.79;64.38;102136.00;5004669;28;20069;-74
2023/04/10 10:10:58;;;;;;;11.65;6.50;;;14.80;99.90;;;14.26;63.63;102121.84;4995552;28;20049;-74